Oden, AR

4:43 PM CDT on March 27, 2015 (GMT -0500)
Paradise South Golf Course | | Change Station
CLOSE
Current Station
Personal Weather Station
Location: Norman, AR
Elevation: 700 ft
Nearby Weather Stations

Elev 700 ft 34.43 °N, 93.71 °W | Updated 13 seconds ago

Partly Cloudy
Partly Cloudy
58.5 °F
Feels Like 58.5 °F
N
3.8
Wind Variable Wind from NW
Gusts 14.5 mph

Today
High -- | Low -- °F
--% Chance of Precip.
Yesterday
High -- | Low -- °F
Precip. -- in
7:09 AM 7:32 PM
First Quarter, 56% visible
Pressure 30.11 in
Visibility 10.0 miles
Clouds Scattered Clouds 6000 ft
Dew Point 8 °F
Humidity 13%
Rainfall 0.00 in
Snow Depth Not available.
UV 5 out of 12
Pollen 9.70 out of 12
Air Quality Not available.
Flu Activity Not available.
METAR KMWT 272053Z AUTO 33008KT 290V010 10SM SCT060 13/M02 A3010 RMK AO2 SLP196 T01281017 58002

More Conditions Fewer Conditions

Pressure 30.11 in
Visibility 10.0 miles
Clouds Scattered Clouds 6000 ft
Dew Point 8 °F
Humidity 13%
Rainfall 0.00 in
Snow Depth Not available.
UV 5 out of 12
Pollen 9.70 out of 12
Air Quality Not available.
Flu Activity Not available.
METAR KMWT 272053Z AUTO 33008KT 290V010 10SM SCT060 13/M02 A3010 RMK AO2 SLP196 T01281017 58002

More Conditions Fewer Conditions

10-Day Weather Forecast

Almanac

Astronomy

Mar. 27, 2015 Rise Set
Actual Time
Civil Twilight
Nautical Twilight
Astronomical Twilight
Moon
Length of Visible Light
Length of Day
Tomorrow will be .
, % of the Moon is Illuminated

Today's Extremes

State Highs State Lows

Community

WunderPhotos

Upload Photos

1,808,834 photos uploaded!

WunderBlogs® & News

Nearby

Air Quality

  Air Quality AQ Index Pollutant
Not available.

Snow Depth

Station Depth Elevation

Earthquake Activity

City Distance Mag. Time & Date
Minimum magnitude displayed is 2.5.

Coastal Water Temperatures

Place Temperature

Stations

Nearby Weather Stations

Station Location Temp. Windchill Dew Point Humidity Wind Precip. Elev Updated Type